Aérodrome :
LOGIN :

S'inscrire | Disclaimer

   EN    FR    IT 

 










Légende :    VFR   VFR Marginal   IFR   IFR Intensif   IFR Très Intensif
Visi : 
Plafond : 
>= 8 km
>= 3000ft
5 à 8 km
1000 à 3000 ft
1500m à 5 km
500 à 1000 ft
800 à 1500m
200 à 500 ft
< 800m
< 200 ft
Symboles :   Orages  Brouillard  Fortes neiges  Fortes précipitations  Vent > 20 kt
SIGMETs :   Divers  Orages  Givrage  Turbulence  Onde Orograph.  Cendres Volcan.







- Altitude de l'aérodrome : 614 ft
- Code IATA : CRL


EBCI - Charleroi

DERNIER METAR :
  • 222020Z 02003KT CAVOK 13/11 Q1023 NOSIG

METARs EXPIRÉS :
  • 221950Z 36004KT CAVOK 13/11 Q1023 NOSIG
  • 221920Z 02005KT 9999 FEW022 14/11 Q1023 NOSIG
  • 221850Z 34003KT 9999 FEW022 14/11 Q1023 NOSIG
  • 221820Z 28002KT 9999 FEW022 15/11 Q1023 NOSIG
  • 221750Z 26002KT 9999 FEW022 14/11 Q1022 NOSIG

TAF TAF EBCI
Valide du 22 à 18h jusqu'au 24 à 00h UTC


221710Z 2218/2324 VRB03KT 9999 FEW020
BECMG 2221/2222 4000 BR
BECMG 2222/2224 2000
TEMPO 2301/2308 0400 FG BKN001
BECMG 2308/2309 4500
BECMG 2309/2311 9999 NSW
Pas de NOTAMs connus pour ce terrain.



MET'MAP, la Météo Aéronautique d'un coup d'oeil ! - Copyright ORBIFLY Décembre 2007 - Disclaimer

ORBIFLY MET'MAP TEAM :

Programmation & Développement : Alexandra Zaïnal
Conception & Développement : Baudouin d'Aumeries
Co-Programmation & Développement : Marc-Olivier Méhu
Soutien technique & logistique : Manuel Goepfert

Contact : metmap@orbifly.com




SOURCES & CREDITS :

   NOAA